createdAt,value
2023-05-21T00:01:32.510Z,14.60
2023-05-21T00:03:59.310Z,14.18
2023-05-21T00:06:26.424Z,13.63
2023-05-21T00:08:55.799Z,13.44
2023-05-21T00:11:22.457Z,12.76
2023-05-21T00:13:49.209Z,13.24
2023-05-21T00:16:15.901Z,13.41
2023-05-21T00:18:42.850Z,14.79
2023-05-21T00:21:09.534Z,14.82
2023-05-21T00:23:36.195Z,16.13
2023-05-21T00:26:03.125Z,16.36
2023-05-21T00:28:29.825Z,16.09
2023-05-21T00:30:56.462Z,14.74
2023-05-21T00:33:23.394Z,13.50
2023-05-21T00:35:50.116Z,14.03
2023-05-21T00:38:16.763Z,14.21
2023-05-21T00:40:43.519Z,14.19
2023-05-21T00:43:10.174Z,14.09
2023-05-21T00:45:37.539Z,14.86
2023-05-21T00:48:05.940Z,14.86
2023-05-21T00:50:32.976Z,14.43
2023-05-21T00:52:59.886Z,15.22
2023-05-21T00:55:26.796Z,15.06
2023-05-21T00:57:53.937Z,15.19
2023-05-21T01:00:21.241Z,14.97
2023-05-21T01:02:48.041Z,14.92
2023-05-21T01:05:14.831Z,15.22
2023-05-21T01:07:41.879Z,15.78
2023-05-21T01:10:11.416Z,17.38
2023-05-21T01:12:42.584Z,17.47
2023-05-21T01:15:09.891Z,15.98
2023-05-21T01:17:36.874Z,14.76
2023-05-21T01:20:06.844Z,14.45
2023-05-21T01:22:36.064Z,13.51
2023-05-21T01:25:03.763Z,11.33
2023-05-21T01:27:30.749Z,10.73
2023-05-21T01:29:58.154Z,10.26
2023-05-21T01:32:30.836Z,9.60
2023-05-21T01:35:38.577Z,10.25
2023-05-21T01:38:17.374Z,9.93
2023-05-21T01:41:01.078Z,10.37
2023-05-21T01:43:31.546Z,10.93
2023-05-21T01:46:00.298Z,10.38
2023-05-21T01:48:29.351Z,10.23
2023-05-21T01:51:00.164Z,10.09
2023-05-21T01:53:26.948Z,9.83
2023-05-21T01:55:53.740Z,9.39
2023-05-21T01:58:21.147Z,9.75
2023-05-21T02:00:47.841Z,9.81
2023-05-21T02:03:14.625Z,9.28
2023-05-21T02:05:43.994Z,9.59
2023-05-21T02:08:10.659Z,8.92
2023-05-21T02:10:37.328Z,9.67
2023-05-21T02:13:04.050Z,11.55
2023-05-21T02:15:32.022Z,11.47
2023-05-21T02:17:58.799Z,10.67
2023-05-21T02:20:25.632Z,10.02
2023-05-21T02:22:52.369Z,10.16
2023-05-21T02:25:19.604Z,9.94
2023-05-21T02:27:46.330Z,10.46
2023-05-21T02:30:15.420Z,11.08
2023-05-21T02:32:44.153Z,10.60
2023-05-21T02:35:12.631Z,10.59
2023-05-21T02:37:40.486Z,10.89
2023-05-21T02:40:08.347Z,11.91
2023-05-21T02:42:35.461Z,11.26
2023-05-21T02:45:02.362Z,11.31
2023-05-21T02:47:29.121Z,11.62
2023-05-21T02:49:58.626Z,11.48
2023-05-21T02:52:25.272Z,11.55
2023-05-21T02:54:53.695Z,11.19
2023-05-21T02:57:20.440Z,11.93
2023-05-21T02:59:47.188Z,11.70
2023-05-21T03:02:14.011Z,12.00
2023-05-21T03:04:40.701Z,10.82
2023-05-21T03:07:07.363Z,11.33
2023-05-21T03:09:34.031Z,12.00
2023-05-21T03:12:00.709Z,12.78
2023-05-21T03:14:27.397Z,12.99
2023-05-21T03:16:54.130Z,12.57
2023-05-21T03:19:20.856Z,12.35
2023-05-21T03:21:47.868Z,12.59
2023-05-21T03:24:14.516Z,12.98
2023-05-21T03:26:41.145Z,12.70
2023-05-21T03:29:07.912Z,12.35
2023-05-21T03:31:37.371Z,12.04
2023-05-21T03:34:04.118Z,11.65
2023-05-21T03:36:33.457Z,10.91
2023-05-21T03:39:00.128Z,11.11
2023-05-21T03:41:26.841Z,10.67
2023-05-21T03:43:53.550Z,11.40
2023-05-21T03:46:20.269Z,11.73
2023-05-21T03:48:47.017Z,11.35
2023-05-21T03:51:13.697Z,12.97
2023-05-21T03:53:40.377Z,13.75
2023-05-21T03:56:07.387Z,14.13
2023-05-21T03:58:35.821Z,15.18
2023-05-21T04:01:02.502Z,14.71
2023-05-21T04:03:29.399Z,15.38
2023-05-21T04:05:56.335Z,15.82
2023-05-21T04:08:22.998Z,15.87
2023-05-21T04:10:49.639Z,16.52
2023-05-21T04:13:16.344Z,16.64
2023-05-21T04:15:42.990Z,15.98
2023-05-21T04:18:09.680Z,15.86
2023-05-21T04:20:38.817Z,16.35
2023-05-21T04:23:05.499Z,16.37
2023-05-21T04:25:32.155Z,15.87
2023-05-21T04:27:58.828Z,15.14
2023-05-21T04:30:25.577Z,15.32
2023-05-21T04:32:55.416Z,15.54
2023-05-21T04:35:22.132Z,15.92
2023-05-21T04:37:48.786Z,16.61
2023-05-21T04:40:15.514Z,16.94
2023-05-21T04:42:42.260Z,17.00
2023-05-21T04:45:09.608Z,16.15
2023-05-21T04:47:36.495Z,16.78
2023-05-21T04:50:03.558Z,16.49
2023-05-21T04:52:30.438Z,15.54
2023-05-21T04:54:57.334Z,16.51
2023-05-21T04:57:24.047Z,16.10
2023-05-21T04:59:50.797Z,16.00
2023-05-21T05:02:17.463Z,15.90
2023-05-21T05:04:44.441Z,16.11
2023-05-21T05:07:11.132Z,16.25
2023-05-21T05:09:40.081Z,15.04
2023-05-21T05:12:09.517Z,14.33
2023-05-21T05:14:36.235Z,14.29
2023-05-21T05:17:02.924Z,14.00
2023-05-21T05:19:29.745Z,14.26
2023-05-21T05:21:56.753Z,14.47
2023-05-21T05:24:23.402Z,14.55
2023-05-21T05:26:50.045Z,13.45
2023-05-21T05:29:16.673Z,13.76
2023-05-21T05:31:43.369Z,13.94
2023-05-21T05:34:10.161Z,14.99
2023-05-21T05:36:36.874Z,15.08
2023-05-21T05:39:03.806Z,15.66
2023-05-21T05:41:30.528Z,15.59
2023-05-21T05:43:57.163Z,15.78
2023-05-21T05:46:24.694Z,16.90
2023-05-21T05:48:51.439Z,16.29
2023-05-21T05:51:18.097Z,16.36
2023-05-21T05:53:44.726Z,16.47
2023-05-21T05:56:11.532Z,16.17
2023-05-21T05:58:40.564Z,15.71
2023-05-21T06:01:07.229Z,16.05
2023-05-21T06:03:34.077Z,16.68
2023-05-21T06:06:00.966Z,16.23
2023-05-21T06:08:27.654Z,16.86
2023-05-21T06:10:54.417Z,16.51
2023-05-21T06:13:21.332Z,16.39
2023-05-21T06:15:48.095Z,16.04
2023-05-21T06:18:14.769Z,16.33
2023-05-21T06:20:41.687Z,16.48
2023-05-21T06:23:08.368Z,16.70
2023-05-21T06:25:35.333Z,16.24
2023-05-21T06:28:02.296Z,16.86
2023-05-21T06:30:31.306Z,16.41
2023-05-21T06:32:58.079Z,16.68
2023-05-21T06:35:26.125Z,16.74
2023-05-21T06:37:52.988Z,16.83
2023-05-21T06:40:19.878Z,17.52
2023-05-21T06:42:46.688Z,17.33
2023-05-21T06:45:14.545Z,16.86
2023-05-21T06:47:44.588Z,16.87
2023-05-21T06:50:11.284Z,16.74
2023-05-21T06:52:37.960Z,16.75
2023-05-21T06:55:05.052Z,17.13
2023-05-21T06:57:32.424Z,16.69
2023-05-21T06:59:59.079Z,17.05
2023-05-21T07:02:25.813Z,16.71
2023-05-21T07:04:52.705Z,16.46
2023-05-21T07:07:19.510Z,16.35
2023-05-21T07:09:46.156Z,16.16
2023-05-21T07:12:12.801Z,16.28
2023-05-21T07:14:39.436Z,16.29
2023-05-21T07:17:06.164Z,16.51
2023-05-21T07:19:32.943Z,16.97
2023-05-21T07:21:59.588Z,16.80
2023-05-21T07:24:26.236Z,16.62
2023-05-21T07:26:58.442Z,16.33
2023-05-21T07:29:25.552Z,16.74
2023-05-21T07:31:52.211Z,16.91
2023-05-21T07:34:18.876Z,17.42
2023-05-21T07:36:45.520Z,17.19
2023-05-21T07:39:12.181Z,17.04
2023-05-21T07:41:38.890Z,17.45
2023-05-21T07:44:07.132Z,16.76
2023-05-21T07:46:33.845Z,16.99
2023-05-21T07:49:00.614Z,16.77
2023-05-21T07:51:27.884Z,17.35
2023-05-21T07:53:55.371Z,17.65
2023-05-21T07:56:22.327Z,17.37
2023-05-21T07:58:49.013Z,17.69
2023-05-21T08:01:15.723Z,17.55
2023-05-21T08:03:42.571Z,17.24
2023-05-21T08:06:09.392Z,17.33
2023-05-21T08:08:36.075Z,17.23
2023-05-21T08:11:02.907Z,16.85
2023-05-21T08:13:29.582Z,17.31
2023-05-21T08:15:56.287Z,17.07
2023-05-21T08:18:22.984Z,17.28
2023-05-21T08:20:49.639Z,16.70
2023-05-21T08:23:16.299Z,16.86
2023-05-21T08:25:42.968Z,17.38
2023-05-21T08:28:09.686Z,17.91
2023-05-21T08:30:36.464Z,17.18
2023-05-21T08:33:03.295Z,17.38
2023-05-21T08:35:29.991Z,17.16
2023-05-21T08:37:56.699Z,17.18
2023-05-21T08:40:23.434Z,17.14
2023-05-21T08:42:51.526Z,16.72
2023-05-21T08:45:23.504Z,16.96
2023-05-21T08:47:58.457Z,17.96
2023-05-21T08:50:28.066Z,16.90
2023-05-21T08:52:55.047Z,17.41
2023-05-21T08:55:21.955Z,17.70
2023-05-21T08:57:49.045Z,17.25
2023-05-21T09:00:16.087Z,17.55
2023-05-21T09:02:44.894Z,17.47
2023-05-21T09:05:13.234Z,18.06
2023-05-21T09:07:47.180Z,18.49
2023-05-21T09:10:15.155Z,18.07
2023-05-21T09:12:42.125Z,18.62
2023-05-21T09:15:09.708Z,18.29
2023-05-21T09:17:36.445Z,18.37
2023-05-21T09:20:10.278Z,17.93
2023-05-21T09:22:47.404Z,17.69
2023-05-21T09:25:17.734Z,17.77
2023-05-21T09:27:44.511Z,18.13
2023-05-21T09:30:16.911Z,17.39
2023-05-21T09:32:45.500Z,17.12
2023-05-21T09:35:14.656Z,16.62
2023-05-21T09:37:48.012Z,17.44
2023-05-21T09:40:17.186Z,17.35
2023-05-21T09:42:47.278Z,18.73
2023-05-21T09:45:25.934Z,18.27
2023-05-21T09:47:56.533Z,18.58
2023-05-21T09:50:25.561Z,17.59
2023-05-21T09:52:55.956Z,17.24
2023-05-21T09:55:24.005Z,17.08
2023-05-21T09:57:52.032Z,17.23
2023-05-21T10:00:20.896Z,17.15
2023-05-21T10:02:55.871Z,18.47
2023-05-21T10:05:27.808Z,17.80
2023-05-21T10:08:05.365Z,18.47
2023-05-21T10:10:32.599Z,19.21
2023-05-21T10:13:04.119Z,19.46
2023-05-21T10:15:44.540Z,19.36
2023-05-21T10:18:13.618Z,19.50
2023-05-21T10:20:41.100Z,19.11
2023-05-21T10:23:08.241Z,20.29
2023-05-21T10:25:35.732Z,19.89
2023-05-21T10:28:03.413Z,21.05
2023-05-21T10:30:30.214Z,31.46
2023-05-21T10:32:59.691Z,27.27
2023-05-21T10:35:27.345Z,46.27
2023-05-21T10:37:56.968Z,30.38
2023-05-21T10:40:23.660Z,39.88
2023-05-21T10:43:34.999Z,35.37
2023-05-21T10:46:37.609Z,22.65
2023-05-21T10:49:35.275Z,25.64
2023-05-21T10:52:34.829Z,23.83
2023-05-21T10:55:12.476Z,21.72
2023-05-21T10:58:02.052Z,27.66
2023-05-21T11:00:30.082Z,23.49
2023-05-21T11:02:59.307Z,29.43
2023-05-21T11:05:51.084Z,25.10
2023-05-21T11:08:29.422Z,31.06
2023-05-21T11:10:58.539Z,22.94
2023-05-21T11:13:26.981Z,19.65
2023-05-21T11:15:59.628Z,17.59
2023-05-21T11:18:35.192Z,16.81
2023-05-21T11:21:13.613Z,16.20
2023-05-21T11:24:03.360Z,15.81
2023-05-21T11:26:49.920Z,16.15
2023-05-21T11:29:18.278Z,15.50
2023-05-21T11:31:59.875Z,15.97
2023-05-21T11:34:26.548Z,15.14
2023-05-21T11:37:16.318Z,14.30
2023-05-21T11:39:44.388Z,14.49
2023-05-21T11:42:11.210Z,14.52
2023-05-21T11:44:44.843Z,14.53
2023-05-21T11:47:17.401Z,13.71
2023-05-21T11:49:45.034Z,14.96
2023-05-21T11:52:13.566Z,14.70
2023-05-21T11:54:43.141Z,14.02
2023-05-21T11:57:10.354Z,13.51
2023-05-21T11:59:37.014Z,13.50
2023-05-21T12:02:04.835Z,13.07
2023-05-21T12:04:36.307Z,13.04
2023-05-21T12:07:07.310Z,12.09
2023-05-21T12:09:48.035Z,12.30
2023-05-21T12:12:16.859Z,12.27
2023-05-21T12:14:48.769Z,11.96
2023-05-21T12:17:18.543Z,12.03
2023-05-21T12:19:46.820Z,11.99
2023-05-21T12:22:14.301Z,12.06
2023-05-21T12:24:40.981Z,11.73
2023-05-21T12:27:08.319Z,12.19
2023-05-21T12:29:37.821Z,11.68
2023-05-21T12:32:07.894Z,11.07
2023-05-21T12:34:54.215Z,11.42
2023-05-21T12:37:26.897Z,11.75
2023-05-21T12:39:56.044Z,11.86
2023-05-21T12:42:30.504Z,11.37
2023-05-21T12:44:57.914Z,11.53
2023-05-21T12:47:26.548Z,10.83
2023-05-21T12:50:09.394Z,10.60
2023-05-21T12:52:36.051Z,10.96
2023-05-21T12:55:02.862Z,11.25
2023-05-21T12:57:37.511Z,11.19
2023-05-21T13:00:06.486Z,11.71
2023-05-21T13:02:42.494Z,11.76
2023-05-21T13:05:15.356Z,10.95
2023-05-21T13:07:43.470Z,10.64
2023-05-21T13:10:13.537Z,11.21
2023-05-21T13:12:41.630Z,10.16
2023-05-21T13:15:10.690Z,10.25
2023-05-21T13:17:37.418Z,9.98
2023-05-21T13:20:07.249Z,9.93
2023-05-21T13:22:34.920Z,10.48
2023-05-21T13:25:05.901Z,9.70
2023-05-21T13:27:32.851Z,9.79
2023-05-21T13:29:59.639Z,9.41
2023-05-21T13:32:26.530Z,9.35
2023-05-21T13:34:53.251Z,9.23
2023-05-21T13:37:20.017Z,8.75
2023-05-21T13:39:47.576Z,9.25
2023-05-21T13:42:14.355Z,8.92
2023-05-21T13:44:41.216Z,8.89
2023-05-21T13:47:08.756Z,9.56
2023-05-21T13:49:36.057Z,9.36
2023-05-21T13:52:04.326Z,9.16
2023-05-21T13:54:31.307Z,8.80
2023-05-21T13:56:58.394Z,8.89
2023-05-21T13:59:25.208Z,8.94
2023-05-21T14:01:52.369Z,8.96
2023-05-21T14:04:20.277Z,9.66
2023-05-21T14:06:50.895Z,9.40
2023-05-21T14:09:23.699Z,9.56
2023-05-21T14:11:50.362Z,9.08
2023-05-21T14:14:17.054Z,8.42
2023-05-21T14:16:46.388Z,8.56
2023-05-21T14:19:13.452Z,9.40
2023-05-21T14:21:40.259Z,9.03
2023-05-21T14:24:07.125Z,8.88
2023-05-21T14:26:40.739Z,8.90
2023-05-21T14:29:07.683Z,8.83
2023-05-21T14:31:34.543Z,9.05
2023-05-21T14:34:01.684Z,9.38
2023-05-21T14:36:28.734Z,9.69
2023-05-21T14:38:55.512Z,8.65
2023-05-21T14:41:24.831Z,8.29
2023-05-21T14:43:51.475Z,8.91
2023-05-21T14:46:18.191Z,8.40
2023-05-21T14:48:44.903Z,8.32
2023-05-21T14:51:14.784Z,8.03
2023-05-21T14:53:42.054Z,8.76
2023-05-21T14:56:09.075Z,8.42
2023-05-21T14:58:35.797Z,8.15
2023-05-21T15:01:02.973Z,7.78
2023-05-21T15:03:29.954Z,8.91
2023-05-21T15:05:56.722Z,8.68
2023-05-21T15:08:23.416Z,8.52
2023-05-21T15:10:50.096Z,7.77
2023-05-21T15:13:16.863Z,8.44
2023-05-21T15:15:43.539Z,9.92
2023-05-21T15:18:10.254Z,9.20
2023-05-21T15:20:36.970Z,9.17
2023-05-21T15:25:33.467Z,8.76
2023-05-21T15:28:00.171Z,9.02
2023-05-21T15:30:26.893Z,9.67
2023-05-21T15:32:54.243Z,9.36
2023-05-21T15:35:21.051Z,9.07
2023-05-21T15:37:47.823Z,8.86
2023-05-21T15:40:14.511Z,9.12
2023-05-21T15:42:41.220Z,9.28
2023-05-21T15:45:08.571Z,9.09
2023-05-21T15:47:35.285Z,9.18
2023-05-21T15:50:10.887Z,9.25
2023-05-21T15:52:41.198Z,9.47
2023-05-21T15:55:11.039Z,9.57
2023-05-21T15:57:37.734Z,10.07
2023-05-21T16:00:09.210Z,10.01
2023-05-21T16:02:36.483Z,10.06
2023-05-21T16:05:03.547Z,9.73
2023-05-21T16:07:30.251Z,9.86
2023-05-21T16:09:56.988Z,10.02
2023-05-21T16:12:23.713Z,9.82
2023-05-21T16:14:50.446Z,9.98
2023-05-21T16:17:18.155Z,10.42
2023-05-21T16:19:44.909Z,9.81
2023-05-21T16:22:12.023Z,9.85
2023-05-21T16:24:38.692Z,9.01
2023-05-21T16:27:07.932Z,8.94
2023-05-21T16:29:34.589Z,9.16
2023-05-21T16:32:01.348Z,8.58
2023-05-21T16:34:28.031Z,8.90
2023-05-21T16:36:55.826Z,8.43
2023-05-21T16:39:22.492Z,8.56
2023-05-21T16:41:51.883Z,8.59
2023-05-21T16:44:18.568Z,8.05
2023-05-21T16:46:45.263Z,7.99
2023-05-21T16:49:11.957Z,7.96
2023-05-21T16:51:38.645Z,8.18
2023-05-21T16:54:05.340Z,8.22
2023-05-21T16:56:32.041Z,8.39
2023-05-21T16:58:58.674Z,8.50
2023-05-21T17:01:25.781Z,8.80
2023-05-21T17:03:53.000Z,7.81
2023-05-21T17:06:19.936Z,8.43
2023-05-21T17:08:47.203Z,8.41
2023-05-21T17:11:14.039Z,8.25
2023-05-21T17:13:40.747Z,8.68
2023-05-21T17:16:07.504Z,8.81
2023-05-21T17:18:34.183Z,8.43
2023-05-21T17:21:00.912Z,8.95
2023-05-21T17:23:27.582Z,9.27
2023-05-21T17:25:54.239Z,9.32
2023-05-21T17:28:20.953Z,9.39
2023-05-21T17:30:49.490Z,8.64
2023-05-21T17:33:16.557Z,9.07
2023-05-21T17:35:43.384Z,8.22
2023-05-21T17:38:10.358Z,8.50
2023-05-21T17:40:37.244Z,8.65
2023-05-21T17:43:04.062Z,9.28
2023-05-21T17:45:30.737Z,8.49
2023-05-21T17:48:00.478Z,8.53
2023-05-21T17:50:27.677Z,8.50
2023-05-21T17:52:54.355Z,8.63
2023-05-21T17:55:21.058Z,8.55
2023-05-21T17:57:47.741Z,8.73
2023-05-21T18:00:14.589Z,8.06
2023-05-21T18:02:41.423Z,8.55
2023-05-21T18:05:08.337Z,8.15
2023-05-21T18:07:35.194Z,8.08
2023-05-21T18:10:01.933Z,8.55
2023-05-21T18:12:28.666Z,8.74
2023-05-21T18:14:55.529Z,8.28
2023-05-21T18:17:24.784Z,7.91
2023-05-21T18:19:51.560Z,8.08
2023-05-21T18:22:18.345Z,7.86
2023-05-21T18:24:45.035Z,8.31
2023-05-21T18:27:11.762Z,8.16
2023-05-21T18:29:40.536Z,7.84
2023-05-21T18:32:07.843Z,7.81
2023-05-21T18:34:34.587Z,8.41
2023-05-21T18:37:01.246Z,8.25
2023-05-21T18:39:27.950Z,8.15
2023-05-21T18:42:08.914Z,7.94
2023-05-21T18:44:39.941Z,8.06
2023-05-21T18:47:06.680Z,7.91
2023-05-21T18:49:33.425Z,8.12
2023-05-21T18:52:00.173Z,7.88
2023-05-21T18:54:26.889Z,7.95
2023-05-21T18:56:53.679Z,7.73
2023-05-21T18:59:20.469Z,7.65
2023-05-21T19:01:47.270Z,7.39
2023-05-21T19:04:14.011Z,7.44
2023-05-21T19:06:40.726Z,7.64
2023-05-21T19:09:07.393Z,7.73
2023-05-21T19:11:34.210Z,8.51
2023-05-21T19:14:00.963Z,8.36
2023-05-21T19:16:27.727Z,7.93
2023-05-21T19:18:57.326Z,7.80
2023-05-21T19:21:24.291Z,9.00
2023-05-21T19:23:53.583Z,8.64
2023-05-21T19:26:21.908Z,8.63
2023-05-21T19:28:48.781Z,8.56
2023-05-21T19:31:15.696Z,7.84
2023-05-21T19:33:42.582Z,7.22
2023-05-21T19:36:09.346Z,7.00
2023-05-21T19:38:38.153Z,6.38
2023-05-21T19:41:05.164Z,5.49
2023-05-21T19:43:31.846Z,5.41
2023-05-21T19:45:58.570Z,5.50
2023-05-21T19:48:25.333Z,5.25
2023-05-21T19:50:52.065Z,5.46
2023-05-21T19:53:19.854Z,5.48
2023-05-21T19:55:46.555Z,5.41
2023-05-21T19:58:13.265Z,5.18
2023-05-21T20:00:39.972Z,4.92
2023-05-21T20:03:07.718Z,4.81
2023-05-21T20:05:36.142Z,4.93
2023-05-21T20:08:03.292Z,4.69
2023-05-21T20:10:29.932Z,4.80
2023-05-21T20:12:56.619Z,4.62
2023-05-21T20:15:23.396Z,4.86
2023-05-21T20:17:50.084Z,4.86
2023-05-21T20:20:17.257Z,4.25
2023-05-21T20:22:43.929Z,3.54
2023-05-21T20:25:10.624Z,3.47
2023-05-21T20:27:37.346Z,2.81
2023-05-21T20:30:07.288Z,2.65
2023-05-21T20:32:34.046Z,2.70
2023-05-21T20:35:03.440Z,2.51
2023-05-21T20:37:31.119Z,2.59
2023-05-21T20:40:00.198Z,2.66
2023-05-21T20:42:28.206Z,2.78
2023-05-21T20:44:56.046Z,2.87
2023-05-21T20:47:22.953Z,2.98
2023-05-21T20:49:49.646Z,3.03
2023-05-21T20:52:16.411Z,3.66
2023-05-21T20:54:43.067Z,3.62
2023-05-21T20:57:09.718Z,3.76
2023-05-21T20:59:36.546Z,4.02
2023-05-21T21:02:03.443Z,4.06
2023-05-21T21:04:30.168Z,4.44
2023-05-21T21:06:56.805Z,4.76
2023-05-21T21:09:23.533Z,5.30
2023-05-21T21:11:50.234Z,5.21
2023-05-21T21:14:16.935Z,5.54
2023-05-21T21:16:43.653Z,5.55
2023-05-21T21:19:10.385Z,5.92
2023-05-21T21:21:42.158Z,5.74
2023-05-21T21:24:08.822Z,5.81
2023-05-21T21:26:35.487Z,5.75
2023-05-21T21:29:03.981Z,5.18
2023-05-21T21:31:30.703Z,5.19
2023-05-21T21:33:57.417Z,4.98
2023-05-21T21:36:24.086Z,4.89
2023-05-21T21:38:50.703Z,4.71
2023-05-21T21:41:17.658Z,4.51
2023-05-21T21:43:44.373Z,4.51
2023-05-21T21:46:11.276Z,4.48
2023-05-21T21:48:37.939Z,4.24
2023-05-21T21:51:06.481Z,4.38
2023-05-21T21:53:33.323Z,4.08
2023-05-21T21:56:00.408Z,3.70
2023-05-21T21:58:27.123Z,3.62
2023-05-21T22:00:53.903Z,3.40
2023-05-21T22:03:20.639Z,3.44
2023-05-21T22:05:48.712Z,3.50
2023-05-21T22:08:17.290Z,3.60
2023-05-21T22:10:43.932Z,3.50
2023-05-21T22:13:11.033Z,3.76
2023-05-21T22:15:37.830Z,3.75
2023-05-21T22:18:04.990Z,3.74
2023-05-21T22:20:31.715Z,3.66
2023-05-21T22:22:59.725Z,4.05
2023-05-21T22:25:26.688Z,4.13
2023-05-21T22:27:53.370Z,4.19
2023-05-21T22:30:20.427Z,4.51
2023-05-21T22:32:47.649Z,4.49
2023-05-21T22:35:14.334Z,4.32
2023-05-21T22:37:41.169Z,4.26
2023-05-21T22:40:08.858Z,4.45
2023-05-21T22:42:35.830Z,4.47
2023-05-21T22:45:03.150Z,4.32
2023-05-21T22:47:29.874Z,4.34
2023-05-21T22:49:56.727Z,4.46
2023-05-21T22:52:23.545Z,4.38
2023-05-21T22:54:51.320Z,4.52
2023-05-21T22:57:21.477Z,4.69
2023-05-21T22:59:48.469Z,4.35
2023-05-21T23:02:15.830Z,4.24
2023-05-21T23:04:45.215Z,4.41
2023-05-21T23:07:12.445Z,4.49
2023-05-21T23:09:39.396Z,4.51
2023-05-21T23:12:06.593Z,4.82
2023-05-21T23:14:33.719Z,4.73
2023-05-21T23:17:00.775Z,4.55
2023-05-21T23:19:28.642Z,4.83
2023-05-21T23:21:55.709Z,4.52
2023-05-21T23:24:22.780Z,4.73
2023-05-21T23:26:49.585Z,4.96
2023-05-21T23:29:16.370Z,5.01
2023-05-21T23:31:43.160Z,5.27
2023-05-21T23:34:10.022Z,5.56
2023-05-21T23:36:36.710Z,5.51
2023-05-21T23:39:22.308Z,5.97
2023-05-21T23:41:49.711Z,5.52
2023-05-21T23:44:16.529Z,5.60
2023-05-21T23:46:43.516Z,5.69
2023-05-21T23:49:11.456Z,5.64
2023-05-21T23:51:38.909Z,5.81
2023-05-21T23:54:05.657Z,5.53
2023-05-21T23:56:32.384Z,5.35
2023-05-21T23:58:59.071Z,5.75
